createdAt,value
2022-12-03T00:01:58.987Z,98845.03
2022-12-03T00:04:25.484Z,98845.34
2022-12-03T00:06:52.038Z,98840.44
2022-12-03T00:09:18.511Z,98840.00
2022-12-03T00:11:45.053Z,98841.13
2022-12-03T00:14:11.618Z,98847.13
2022-12-03T00:16:38.046Z,98847.78
2022-12-03T00:19:04.541Z,98841.44
2022-12-03T00:21:31.003Z,98850.13
2022-12-03T00:23:57.469Z,98847.56
2022-12-03T00:26:23.913Z,98844.13
2022-12-03T00:28:50.436Z,98847.47
2022-12-03T00:31:17.547Z,98839.72
2022-12-03T00:33:44.060Z,98844.97
2022-12-03T00:36:10.469Z,98845.81
2022-12-03T00:38:37.094Z,98841.91
2022-12-03T00:41:03.589Z,98844.25
2022-12-03T00:43:30.084Z,98840.84
2022-12-03T00:45:56.717Z,98844.19
2022-12-03T00:48:23.215Z,98835.41
2022-12-03T00:50:49.749Z,98824.00
2022-12-03T00:53:16.209Z,98835.38
2022-12-03T00:55:42.642Z,98823.91
2022-12-03T00:58:09.448Z,98830.66
2022-12-03T01:00:37.181Z,98835.47
2022-12-03T01:03:04.207Z,98834.03
2022-12-03T01:05:30.789Z,98833.78
2022-12-03T01:07:57.334Z,98837.91
2022-12-03T01:10:23.939Z,98828.44
2022-12-03T01:12:50.380Z,98830.97
2022-12-03T01:15:16.930Z,98827.69
2022-12-03T01:17:43.491Z,98837.13
2022-12-03T01:20:11.354Z,98832.50
2022-12-03T01:22:37.883Z,98835.78
2022-12-03T01:25:04.989Z,98828.69
2022-12-03T01:27:31.400Z,98846.03
2022-12-03T01:29:57.856Z,98836.59
2022-12-03T01:32:24.292Z,98834.94
2022-12-03T01:34:54.465Z,98835.63
2022-12-03T01:37:25.131Z,98831.19
2022-12-03T01:39:52.168Z,98838.06
2022-12-03T01:42:27.000Z,98826.47
2022-12-03T01:44:57.122Z,98828.88
2022-12-03T01:47:32.088Z,98831.03
2022-12-03T01:50:08.555Z,98828.56
2022-12-03T01:52:38.853Z,98831.25
2022-12-03T01:55:13.501Z,98838.69
2022-12-03T01:57:45.113Z,98829.72
2022-12-03T02:00:22.858Z,98832.31
2022-12-03T02:03:01.693Z,98828.72
2022-12-03T02:05:33.929Z,98824.09
2022-12-03T02:08:01.024Z,98828.31
2022-12-03T02:10:35.785Z,98828.34
2022-12-03T02:13:08.241Z,98828.56
2022-12-03T02:15:38.017Z,98833.94
2022-12-03T02:18:04.981Z,98826.13
2022-12-03T02:20:42.109Z,98832.91
2022-12-03T02:23:44.316Z,98822.69
2022-12-03T02:26:11.131Z,98825.63
2022-12-03T02:28:38.377Z,98825.63
2022-12-03T02:31:05.262Z,98827.59
2022-12-03T02:33:32.381Z,98826.00
2022-12-03T02:36:03.288Z,98822.56
2022-12-03T02:38:34.178Z,98816.31
2022-12-03T02:41:08.334Z,98817.06
2022-12-03T02:43:35.595Z,98814.09
2022-12-03T02:46:04.698Z,98804.56
2022-12-03T02:48:39.558Z,98812.66
2022-12-03T02:51:10.424Z,98815.38
2022-12-03T02:53:49.227Z,98809.69
2022-12-03T02:56:23.287Z,98810.59
2022-12-03T02:58:54.920Z,98814.53
2022-12-03T03:01:21.431Z,98808.03
2022-12-03T03:03:49.525Z,98810.50
2022-12-03T03:06:18.218Z,98811.91
2022-12-03T03:08:45.156Z,98806.34
2022-12-03T03:11:11.917Z,98807.47
2022-12-03T03:13:39.680Z,98804.16
2022-12-03T03:16:08.289Z,98797.03
2022-12-03T03:18:36.244Z,98804.81
2022-12-03T03:21:04.438Z,98795.94
2022-12-03T03:23:31.326Z,98797.69
2022-12-03T03:26:09.793Z,98799.53
2022-12-03T03:28:42.176Z,98793.91
2022-12-03T03:31:12.531Z,98790.44
2022-12-03T03:33:43.045Z,98795.63
2022-12-03T03:36:10.934Z,98788.56
2022-12-03T03:38:38.983Z,98789.47
2022-12-03T03:41:09.034Z,98790.44
2022-12-03T03:43:38.750Z,98788.00
2022-12-03T03:46:07.217Z,98787.00
2022-12-03T03:48:35.727Z,98785.19
2022-12-03T03:51:08.730Z,98786.19
2022-12-03T03:53:47.963Z,98786.16
2022-12-03T03:56:17.468Z,98787.44
2022-12-03T03:58:43.994Z,98785.13
2022-12-03T04:01:14.140Z,98785.03
2022-12-03T04:03:41.032Z,98775.91
2022-12-03T04:06:08.264Z,98777.59
2022-12-03T04:08:34.755Z,98779.25
2022-12-03T04:11:20.029Z,98785.47
2022-12-03T04:13:46.551Z,98779.34
2022-12-03T04:16:13.059Z,98782.72
2022-12-03T04:18:45.602Z,98782.66
2022-12-03T04:21:40.814Z,98782.66
2022-12-03T04:24:10.554Z,98782.53
2022-12-03T04:26:56.811Z,98777.97
2022-12-03T04:29:23.508Z,98778.81
2022-12-03T04:32:08.803Z,98780.03
2022-12-03T04:34:54.408Z,98783.56
2022-12-03T04:37:21.153Z,98781.41
2022-12-03T04:39:47.944Z,98774.22
2022-12-03T04:42:14.471Z,98772.97
2022-12-03T04:44:41.026Z,98777.41
2022-12-03T04:47:11.002Z,98773.84
2022-12-03T04:49:45.568Z,98773.84
2022-12-03T04:52:14.538Z,98772.97
2022-12-03T04:54:41.964Z,98780.16
2022-12-03T04:57:09.641Z,98778.41
2022-12-03T04:59:37.189Z,98778.44
2022-12-03T05:02:06.221Z,98777.56
2022-12-03T05:04:33.548Z,98777.25
2022-12-03T05:07:00.025Z,98780.72
2022-12-03T05:09:26.577Z,98773.34
2022-12-03T05:11:53.096Z,98768.56
2022-12-03T05:14:19.585Z,98761.91
2022-12-03T05:16:46.122Z,98774.34
2022-12-03T05:19:12.613Z,98762.94
2022-12-03T05:21:39.096Z,98761.41
2022-12-03T05:24:06.240Z,98758.00
2022-12-03T05:26:32.764Z,98757.41
2022-12-03T05:28:59.256Z,98752.41
2022-12-03T05:31:25.739Z,98755.78
2022-12-03T05:33:52.364Z,98758.50
2022-12-03T05:36:18.880Z,98758.31
2022-12-03T05:38:45.327Z,98759.72
2022-12-03T05:41:30.268Z,98760.56
2022-12-03T05:43:57.047Z,98756.16
2022-12-03T05:46:23.578Z,98759.13
2022-12-03T05:48:50.076Z,98756.03
2022-12-03T05:51:16.642Z,98762.22
2022-12-03T05:53:43.184Z,98757.00
2022-12-03T05:56:09.713Z,98753.53
2022-12-03T05:58:36.258Z,98755.25
2022-12-03T06:01:02.780Z,98750.25
2022-12-03T06:03:29.349Z,98749.44
2022-12-03T06:05:55.913Z,98740.84
2022-12-03T06:08:22.349Z,98745.94
2022-12-03T06:10:48.848Z,98740.91
2022-12-03T06:13:15.329Z,98743.69
2022-12-03T06:15:44.027Z,98740.94
2022-12-03T06:18:11.837Z,98741.75
2022-12-03T06:20:38.368Z,98736.41
2022-12-03T06:23:04.919Z,98735.34
2022-12-03T06:25:31.448Z,98735.59
2022-12-03T06:27:57.926Z,98737.06
2022-12-03T06:30:24.335Z,98735.22
2022-12-03T06:32:50.933Z,98728.34
2022-12-03T06:35:17.394Z,98735.25
2022-12-03T06:37:43.810Z,98737.91
2022-12-03T06:40:11.106Z,98732.00
2022-12-03T06:42:37.588Z,98735.84
2022-12-03T06:45:04.625Z,98739.94
2022-12-03T06:47:31.056Z,98742.63
2022-12-03T06:49:57.519Z,98736.06
2022-12-03T06:52:24.027Z,98735.25
2022-12-03T06:54:50.757Z,98737.06
2022-12-03T06:57:17.390Z,98736.47
2022-12-03T06:59:43.871Z,98737.25
2022-12-03T07:02:12.319Z,98736.34
2022-12-03T07:04:42.141Z,98739.16
2022-12-03T07:07:12.465Z,98742.66
2022-12-03T07:09:38.956Z,98740.66
2022-12-03T07:12:05.859Z,98738.84
2022-12-03T07:14:32.364Z,98746.38
2022-12-03T07:16:58.856Z,98745.72
2022-12-03T07:19:29.242Z,98748.25
2022-12-03T07:21:58.973Z,98762.75
2022-12-03T07:24:25.448Z,98755.78
2022-12-03T07:26:52.105Z,98749.84
2022-12-03T07:29:18.578Z,98753.03
2022-12-03T07:31:45.073Z,98758.97
2022-12-03T07:34:11.708Z,98751.66
2022-12-03T07:36:38.232Z,98747.97
2022-12-03T07:39:05.363Z,98754.09
2022-12-03T07:41:31.974Z,98760.22
2022-12-03T07:43:58.542Z,98757.66
2022-12-03T07:46:25.120Z,98756.03
2022-12-03T07:48:51.649Z,98750.31
2022-12-03T07:51:18.217Z,98754.66
2022-12-03T07:53:44.725Z,98745.84
2022-12-03T07:56:11.194Z,98755.28
2022-12-03T07:58:37.952Z,98754.88
2022-12-03T08:01:04.690Z,98746.66
2022-12-03T08:03:31.233Z,98747.56
2022-12-03T08:05:57.688Z,98750.91
2022-12-03T08:08:24.157Z,98742.03
2022-12-03T08:10:50.769Z,98754.09
2022-12-03T08:13:19.551Z,98754.94
2022-12-03T08:15:46.475Z,98756.47
2022-12-03T08:18:20.362Z,98751.19
2022-12-03T08:20:50.350Z,98755.66
2022-12-03T08:23:25.520Z,98752.25
2022-12-03T08:25:53.337Z,98747.16
2022-12-03T08:28:27.036Z,98748.88
2022-12-03T08:31:19.494Z,98752.16
2022-12-03T08:33:52.850Z,98756.34
2022-12-03T08:36:29.256Z,98760.25
2022-12-03T08:39:01.081Z,98755.13
2022-12-03T08:41:48.448Z,98757.09
2022-12-03T08:44:29.422Z,98761.25
2022-12-03T08:49:32.749Z,98762.91
2022-12-03T08:52:09.734Z,98766.50
2022-12-03T08:54:36.280Z,98757.66
2022-12-03T08:57:27.808Z,98757.66
2022-12-03T09:00:23.422Z,98745.50
2022-12-03T09:02:54.241Z,98752.94
2022-12-03T09:05:32.302Z,98755.53
2022-12-03T09:07:58.884Z,98760.34
2022-12-03T09:10:25.428Z,98762.69
2022-12-03T09:12:51.960Z,98758.91
2022-12-03T09:15:18.573Z,98762.50
2022-12-03T09:17:45.201Z,98758.09
2022-12-03T09:20:11.984Z,98756.25
2022-12-03T09:22:38.412Z,98762.41
2022-12-03T09:25:05.514Z,98757.47
2022-12-03T09:27:31.987Z,98760.47
2022-12-03T09:29:58.936Z,98763.19
2022-12-03T09:32:25.584Z,98752.53
2022-12-03T09:34:52.579Z,98760.81
2022-12-03T09:37:19.343Z,98755.47
2022-12-03T09:39:45.829Z,98763.19
2022-12-03T09:42:12.330Z,98759.97
2022-12-03T09:44:39.045Z,98751.34
2022-12-03T09:47:06.882Z,98753.34
2022-12-03T09:49:38.146Z,98756.34
2022-12-03T09:52:07.236Z,98752.34
2022-12-03T09:54:34.528Z,98751.94
2022-12-03T09:57:04.084Z,98750.00
2022-12-03T09:59:34.634Z,98749.34
2022-12-03T10:02:02.545Z,98738.84
2022-12-03T10:04:30.516Z,98741.66
2022-12-03T10:06:58.820Z,98737.41
2022-12-03T10:09:29.052Z,98730.81
2022-12-03T10:11:58.753Z,98728.09
2022-12-03T10:14:26.037Z,98725.13
2022-12-03T10:16:52.642Z,98729.09
2022-12-03T10:19:35.384Z,98721.31
2022-12-03T10:22:01.899Z,98725.03
2022-12-03T10:24:34.248Z,98714.66
2022-12-03T10:27:29.642Z,98713.66
2022-12-03T10:30:02.132Z,98719.28
2022-12-03T10:32:48.586Z,98711.84
2022-12-03T10:35:41.312Z,98711.25
2022-12-03T10:38:22.289Z,98707.31
2022-12-03T10:40:49.512Z,98704.66
2022-12-03T10:43:18.941Z,98706.22
2022-12-03T10:45:47.637Z,98703.88
2022-12-03T10:48:21.272Z,98701.13
2022-12-03T10:50:53.564Z,98696.47
2022-12-03T10:53:29.474Z,98694.03
2022-12-03T10:55:59.408Z,98695.72
2022-12-03T10:58:30.253Z,98689.56
2022-12-03T11:01:00.853Z,98691.03
2022-12-03T11:03:33.787Z,98689.44
2022-12-03T11:06:02.553Z,98681.91
2022-12-03T11:08:36.580Z,98670.44
2022-12-03T11:11:16.125Z,98663.56
2022-12-03T11:13:56.369Z,98661.88
2022-12-03T11:16:41.216Z,98660.47
2022-12-03T11:19:19.651Z,98661.22
2022-12-03T11:22:25.329Z,98661.28
2022-12-03T11:25:26.244Z,98653.50
2022-12-03T11:28:14.357Z,98656.63
2022-12-03T11:30:50.552Z,98656.09
2022-12-03T11:33:28.589Z,98658.22
2022-12-03T11:36:04.007Z,98655.16
2022-12-03T11:38:53.849Z,98651.88
2022-12-03T11:41:33.939Z,98646.09
2022-12-03T11:44:30.351Z,98637.47
2022-12-03T11:46:59.300Z,98643.16
2022-12-03T11:49:38.151Z,98642.41
2022-12-03T11:52:23.816Z,98643.81
2022-12-03T11:54:59.185Z,98643.22
2022-12-03T11:57:32.031Z,98639.81
2022-12-03T12:00:16.217Z,98631.94
2022-12-03T12:02:43.936Z,98632.41
2022-12-03T12:05:20.855Z,98633.78
2022-12-03T12:07:48.338Z,98632.63
2022-12-03T12:10:49.041Z,98626.88
2022-12-03T12:13:44.674Z,98624.41
2022-12-03T12:16:11.643Z,98628.00
2022-12-03T12:18:43.175Z,98628.03
2022-12-03T12:21:48.360Z,98624.38
2022-12-03T12:24:41.100Z,98623.34
2022-12-03T12:27:10.372Z,98610.22
2022-12-03T12:29:39.705Z,98618.03
2022-12-03T12:32:09.254Z,98615.00
2022-12-03T12:34:42.896Z,98615.03
2022-12-03T12:37:26.133Z,98610.66
2022-12-03T12:39:56.646Z,98604.47
2022-12-03T12:42:42.586Z,98602.81
2022-12-03T12:45:09.231Z,98602.16
2022-12-03T12:47:36.470Z,98595.50
2022-12-03T12:50:11.343Z,98596.94
2022-12-03T12:52:50.579Z,98599.53
2022-12-03T12:55:17.778Z,98601.34
2022-12-03T12:57:44.504Z,98600.50
2022-12-03T13:00:18.800Z,98596.97
2022-12-03T13:02:56.465Z,98598.38
2022-12-03T13:05:24.474Z,98594.09
2022-12-03T13:07:53.009Z,98592.34
2022-12-03T13:10:39.074Z,98587.53
2022-12-03T13:13:44.008Z,98582.34
2022-12-03T13:16:30.359Z,98576.78
2022-12-03T13:19:01.462Z,98578.97
2022-12-03T13:21:39.804Z,98573.56
2022-12-03T13:24:37.145Z,98580.28
2022-12-03T13:27:35.346Z,98580.94
2022-12-03T13:30:15.631Z,98582.34
2022-12-03T13:32:43.477Z,98575.63
2022-12-03T13:35:09.879Z,98577.31
2022-12-03T13:37:37.559Z,98572.78
2022-12-03T13:40:30.711Z,98568.88
2022-12-03T13:42:58.972Z,98563.53
2022-12-03T13:45:39.928Z,98563.78
2022-12-03T13:48:23.080Z,98567.84
2022-12-03T13:50:52.328Z,98566.66
2022-12-03T13:53:36.722Z,98567.38
2022-12-03T13:56:03.051Z,98554.84
2022-12-03T13:58:29.521Z,98556.78
2022-12-03T14:00:56.076Z,98558.56
2022-12-03T14:03:23.328Z,98561.94
2022-12-03T14:05:49.862Z,98556.84
2022-12-03T14:08:16.578Z,98553.16
2022-12-03T14:10:43.183Z,98560.50
2022-12-03T14:13:09.707Z,98544.81
2022-12-03T14:15:36.203Z,98554.72
2022-12-03T14:18:02.803Z,98550.19
2022-12-03T14:20:29.339Z,98543.16
2022-12-03T14:22:59.345Z,98543.97
2022-12-03T14:25:26.304Z,98542.78
2022-12-03T14:27:52.744Z,98544.25
2022-12-03T14:30:19.234Z,98545.47
2022-12-03T14:32:45.772Z,98541.53
2022-12-03T14:35:12.221Z,98539.97
2022-12-03T14:37:38.716Z,98540.63
2022-12-03T14:40:08.845Z,98541.06
2022-12-03T14:42:36.407Z,98536.06
2022-12-03T14:45:03.856Z,98538.19
2022-12-03T14:47:30.496Z,98539.59
2022-12-03T14:49:57.291Z,98537.06
2022-12-03T14:52:23.836Z,98535.47
2022-12-03T14:54:50.267Z,98543.69
2022-12-03T14:57:17.184Z,98539.53
2022-12-03T14:59:44.956Z,98536.81
2022-12-03T15:02:12.876Z,98543.13
2022-12-03T15:04:41.308Z,98538.13
2022-12-03T15:07:08.871Z,98530.63
2022-12-03T15:09:35.427Z,98532.47
2022-12-03T15:12:01.956Z,98536.28
2022-12-03T15:14:29.021Z,98534.16
2022-12-03T15:16:55.679Z,98536.59
2022-12-03T15:19:22.156Z,98534.72
2022-12-03T15:21:48.643Z,98542.97
2022-12-03T15:24:15.144Z,98543.72
2022-12-03T15:26:41.617Z,98545.50
2022-12-03T15:29:08.067Z,98547.53
2022-12-03T15:31:34.770Z,98542.22
2022-12-03T15:34:01.383Z,98543.38
2022-12-03T15:36:27.900Z,98539.75
2022-12-03T15:38:54.355Z,98545.00
2022-12-03T15:41:29.943Z,98548.91
2022-12-03T15:44:00.065Z,98543.06
2022-12-03T15:46:27.847Z,98548.28
2022-12-03T15:48:55.465Z,98549.81
2022-12-03T15:51:22.014Z,98542.72
2022-12-03T15:53:48.575Z,98550.66
2022-12-03T15:56:15.104Z,98550.25
2022-12-03T15:58:41.717Z,98542.91
2022-12-03T16:01:09.307Z,98543.66
2022-12-03T16:03:36.700Z,98555.25
2022-12-03T16:06:03.460Z,98554.56
2022-12-03T16:08:29.983Z,98551.72
2022-12-03T16:10:56.525Z,98558.53
2022-12-03T16:13:23.139Z,98551.34
2022-12-03T16:15:49.717Z,98554.09
2022-12-03T16:18:16.321Z,98549.69
2022-12-03T16:20:42.835Z,98558.56
2022-12-03T16:23:09.427Z,98554.31
2022-12-03T16:25:36.139Z,98554.56
2022-12-03T16:28:03.471Z,98554.31
2022-12-03T16:30:30.015Z,98561.44
2022-12-03T16:32:56.538Z,98559.75
2022-12-03T16:35:23.105Z,98544.78
2022-12-03T16:37:49.589Z,98547.41
2022-12-03T16:40:16.232Z,98551.41
2022-12-03T16:42:42.741Z,98544.25
2022-12-03T16:45:09.839Z,98544.84
2022-12-03T16:47:36.384Z,98540.72
2022-12-03T16:50:07.437Z,98543.34
2022-12-03T16:52:35.456Z,98546.00
2022-12-03T16:55:02.075Z,98544.25
2022-12-03T16:57:33.412Z,98549.13
2022-12-03T17:00:00.861Z,98545.84
2022-12-03T17:02:27.778Z,98544.56
2022-12-03T17:04:54.571Z,98541.84
2022-12-03T17:07:21.116Z,98540.97
2022-12-03T17:09:47.597Z,98541.03
2022-12-03T17:12:14.080Z,98547.03
2022-12-03T17:14:40.551Z,98541.13
2022-12-03T17:17:07.057Z,98536.06
2022-12-03T17:19:33.569Z,98536.41
2022-12-03T17:22:00.079Z,98537.16
2022-12-03T17:24:26.564Z,98534.56
2022-12-03T17:26:53.041Z,98530.41
2022-12-03T17:29:19.484Z,98533.84
2022-12-03T17:31:45.949Z,98526.50
2022-12-03T17:34:12.491Z,98524.19
2022-12-03T17:36:38.995Z,98520.47
2022-12-03T17:39:05.484Z,98527.25
2022-12-03T17:41:31.958Z,98523.63
2022-12-03T17:43:58.401Z,98524.16
2022-12-03T17:46:25.016Z,98520.81
2022-12-03T17:48:51.666Z,98518.97
2022-12-03T17:51:20.757Z,98519.25
2022-12-03T17:53:47.345Z,98523.91
2022-12-03T17:56:13.837Z,98521.59
2022-12-03T17:58:40.296Z,98518.34
2022-12-03T18:01:08.511Z,98517.00
2022-12-03T18:03:34.984Z,98515.09
2022-12-03T18:06:01.800Z,98510.06
2022-12-03T18:08:28.699Z,98513.81
2022-12-03T18:10:55.338Z,98503.94
2022-12-03T18:13:22.163Z,98504.81
2022-12-03T18:15:48.742Z,98503.84
2022-12-03T18:18:15.270Z,98515.25
2022-12-03T18:20:41.886Z,98505.41
2022-12-03T18:23:08.443Z,98500.34
2022-12-03T18:25:34.976Z,98508.44
2022-12-03T18:28:01.499Z,98499.72
2022-12-03T18:30:27.949Z,98502.16
2022-12-03T18:32:54.755Z,98503.94
2022-12-03T18:35:21.378Z,98499.50
2022-12-03T18:37:51.016Z,98498.44
2022-12-03T18:40:22.465Z,98493.16
2022-12-03T18:42:49.073Z,98490.31
2022-12-03T18:45:16.135Z,98492.34
2022-12-03T18:47:43.301Z,98495.78
2022-12-03T18:50:11.579Z,98492.53
2022-12-03T18:52:38.666Z,98493.47
2022-12-03T18:55:07.339Z,98486.38
2022-12-03T18:57:33.847Z,98485.94
2022-12-03T19:00:00.501Z,98489.75
2022-12-03T19:02:54.121Z,98487.88
2022-12-03T19:05:13.515Z,98489.94
2022-12-03T19:07:40.044Z,98487.94
2022-12-03T19:10:07.748Z,98486.88
2022-12-03T19:12:34.324Z,98486.03
2022-12-03T19:15:01.267Z,98488.06
2022-12-03T19:17:27.885Z,98487.31
2022-12-03T19:19:55.235Z,98490.66
2022-12-03T19:22:22.437Z,98485.22
2022-12-03T19:24:48.898Z,98494.59
2022-12-03T19:27:15.640Z,98491.72
2022-12-03T19:29:42.281Z,98492.06
2022-12-03T19:32:08.905Z,98492.91
2022-12-03T19:34:36.031Z,98492.34
2022-12-03T19:37:02.516Z,98498.75
2022-12-03T19:39:29.024Z,98497.06
2022-12-03T19:41:55.582Z,98494.63
2022-12-03T19:44:22.044Z,98492.88
2022-12-03T19:46:51.266Z,98492.69
2022-12-03T19:49:20.784Z,98491.22
2022-12-03T19:51:48.019Z,98487.16
2022-12-03T19:54:15.163Z,98490.06
2022-12-03T19:56:41.871Z,98496.06
2022-12-03T19:59:10.817Z,98488.50
2022-12-03T20:01:40.409Z,98490.19
2022-12-03T20:04:08.019Z,98494.16
2022-12-03T20:06:39.520Z,98491.59
2022-12-03T20:09:13.482Z,98494.78
2022-12-03T20:11:41.544Z,98489.25
2022-12-03T20:14:14.697Z,98493.25
2022-12-03T20:16:41.612Z,98504.25
2022-12-03T20:19:12.362Z,98492.00
2022-12-03T20:21:40.216Z,98494.59
2022-12-03T20:24:10.101Z,98497.53
2022-12-03T20:26:36.623Z,98491.56
2022-12-03T20:29:03.330Z,98501.91
2022-12-03T20:31:31.806Z,98499.06
2022-12-03T20:34:02.773Z,98492.25
2022-12-03T20:36:31.975Z,98484.72
2022-12-03T20:39:07.052Z,98494.47
2022-12-03T20:41:37.598Z,98488.34
2022-12-03T20:44:07.444Z,98485.66
2022-12-03T20:46:34.417Z,98490.06
2022-12-03T20:49:01.089Z,98484.88
2022-12-03T20:51:30.687Z,98485.19
2022-12-03T20:54:00.462Z,98480.81
2022-12-03T20:56:35.030Z,98485.72
2022-12-03T20:59:07.569Z,98487.72
2022-12-03T21:01:36.042Z,98484.09
2022-12-03T21:04:04.575Z,98478.50
2022-12-03T21:06:33.964Z,98476.69
2022-12-03T21:09:00.893Z,98483.63
2022-12-03T21:11:32.004Z,98480.03
2022-12-03T21:14:00.055Z,98475.63
2022-12-03T21:19:22.993Z,98472.97
2022-12-03T21:21:49.724Z,98469.69
2022-12-03T21:24:16.338Z,98477.75
2022-12-03T21:26:42.926Z,98476.81
2022-12-03T21:29:09.643Z,98469.47
2022-12-03T21:31:37.795Z,98472.66
2022-12-03T21:34:05.003Z,98470.22
2022-12-03T21:36:32.025Z,98472.66
2022-12-03T21:38:58.511Z,98470.78
2022-12-03T21:41:24.959Z,98468.94
2022-12-03T21:43:52.064Z,98467.00
2022-12-03T21:47:10.664Z,98472.22
2022-12-03T21:49:05.663Z,98480.22
2022-12-03T21:51:32.152Z,98481.28
2022-12-03T21:53:58.653Z,98474.78
2022-12-03T21:56:25.213Z,98473.69
2022-12-03T21:58:51.697Z,98462.34
2022-12-03T22:01:21.910Z,98462.09
2022-12-03T22:03:49.353Z,98461.91
2022-12-03T22:06:16.935Z,98466.94
2022-12-03T22:08:44.249Z,98474.63
2022-12-03T22:11:20.540Z,98476.56
2022-12-03T22:13:47.735Z,98471.22
2022-12-03T22:16:21.028Z,98466.06
2022-12-03T22:18:48.369Z,98457.06
2022-12-03T22:21:19.410Z,98460.59
2022-12-03T22:23:46.305Z,98462.41
2022-12-03T22:26:16.059Z,98462.75
2022-12-03T22:28:49.624Z,98461.59
2022-12-03T22:31:18.364Z,98459.63
2022-12-03T22:33:48.069Z,98462.56
2022-12-03T22:36:20.870Z,98451.41
2022-12-03T22:38:49.999Z,98445.69
2022-12-03T22:41:17.139Z,98437.00
2022-12-03T22:43:45.250Z,98438.91
2022-12-03T22:46:12.712Z,98437.38
2022-12-03T22:48:45.292Z,98438.69
2022-12-03T22:51:22.732Z,98431.66
2022-12-03T22:53:56.118Z,98438.72
2022-12-03T22:56:23.444Z,98434.94
2022-12-03T22:58:49.953Z,98432.91
2022-12-03T23:01:29.616Z,98435.16
2022-12-03T23:03:56.819Z,98432.34
2022-12-03T23:06:24.427Z,98437.56
2022-12-03T23:08:52.372Z,98426.31
2022-12-03T23:11:20.176Z,98432.56
2022-12-03T23:13:46.849Z,98429.22
2022-12-03T23:16:17.877Z,98422.56
2022-12-03T23:18:45.082Z,98425.88
2022-12-03T23:21:18.028Z,98421.41
2022-12-03T23:23:44.872Z,98437.69
2022-12-03T23:26:13.680Z,98428.75
2022-12-03T23:28:43.076Z,98432.56
2022-12-03T23:31:29.355Z,98427.66
2022-12-03T23:33:57.458Z,98423.19
2022-12-03T23:36:26.985Z,98424.66
2022-12-03T23:38:54.619Z,98417.97
2022-12-03T23:41:23.389Z,98425.56
2022-12-03T23:43:49.988Z,98416.34
2022-12-03T23:46:21.210Z,98416.75
2022-12-03T23:48:48.599Z,98418.97
2022-12-03T23:51:23.720Z,98424.91
2022-12-03T23:53:51.161Z,98414.91
2022-12-03T23:56:22.069Z,98413.81
2022-12-03T23:58:49.058Z,98415.88
